Time;durP1;ratioP1;P1;durP2;ratioP2;P2;SDS_P1;SDS_P2;PMS_P1;PMS_P2;Temp;Humidity;BMP_temperature;BMP_pressure;BME280_temperature;BME280_humidity;BME280_pressure;Samples;Min_cycle;Max_cycle;Signal;HPM_P1;HPM_P2
2022/03/18 00:00:21;;;;;;;9.23;5.95;;;5.50;99.90;;;;;;4936498;29;20052;-72
2022/03/18 00:02:48;;;;;;;8.57;6.10;;;5.50;99.90;;;;;;4949633;29;20043;-72
2022/03/18 00:05:16;;;;;;;11.95;6.15;;;5.50;99.90;;;;;;4950344;29;20056;-72
2022/03/18 00:07:44;;;;;;;12.38;5.57;;;5.40;99.90;;;;;;4936306;29;20074;-72
2022/03/18 00:10:16;;;;;;;11.68;4.90;;;5.40;99.90;;;;;;4951361;29;20059;-72
2022/03/18 00:12:44;;;;;;;8.45;5.93;;;5.30;99.90;;;;;;4935787;29;20051;-72
2022/03/18 00:15:12;;;;;;;9.40;4.93;;;5.30;99.90;;;;;;4935974;29;20114;-72
2022/03/18 00:17:40;;;;;;;10.93;5.60;;;5.30;99.90;;;;;;4950567;29;20075;-72
2022/03/18 00:20:08;;;;;;;8.85;5.00;;;5.30;99.90;;;;;;4934326;29;20047;-72
2022/03/18 00:22:35;;;;;;;12.48;5.55;;;5.20;99.90;;;;;;4936577;28;20502;-72
2022/03/18 00:25:02;;;;;;;7.72;4.78;;;5.20;99.90;;;;;;4972757;28;20495;-72
2022/03/18 00:27:29;;;;;;;7.85;5.43;;;5.20;99.90;;;;;;4954227;28;20051;-72
2022/03/18 00:29:56;;;;;;;10.40;6.00;;;5.20;99.90;;;;;;4937995;29;20055;-72
2022/03/18 00:32:23;;;;;;;12.25;6.15;;;5.10;99.90;;;;;;4937577;29;20061;-72
2022/03/18 00:34:50;;;;;;;7.45;5.22;;;5.10;99.90;;;;;;4953308;29;20056;-72
2022/03/18 00:37:18;;;;;;;11.55;5.38;;;5.10;99.90;;;;;;4937882;29;20055;-72
2022/03/18 00:39:45;;;;;;;7.95;5.55;;;5.10;99.90;;;;;;4937630;29;20057;-72
2022/03/18 00:42:12;;;;;;;10.50;6.30;;;5.10;99.90;;;;;;4953248;29;20055;-72
2022/03/18 00:44:39;;;;;;;9.85;6.40;;;5.10;99.90;;;;;;4954809;28;20078;-72
2022/03/18 00:52:03;;;;;;;11.65;4.97;;;5.00;99.90;;;;;;4937413;29;20138;-72
2022/03/18 00:52:40;;;;;;;10.13;5.05;;;5.00;99.90;;;;;;4941238;28;20055;-72
2022/03/18 00:55:09;;;;;;;9.27;5.57;;;4.90;99.90;;;;;;4973982;28;20070;-72
2022/03/18 00:57:36;;;;;;;11.40;6.00;;;5.00;99.90;;;;;;4952958;28;20422;-72
2022/03/18 01:00:05;;;;;;;10.13;5.30;;;5.00;99.90;;;;;;4937396;29;20055;-72
2022/03/18 01:02:33;;;;;;;9.00;5.15;;;5.00;99.90;;;;;;4953005;29;20058;-72
2022/03/18 01:05:01;;;;;;;8.27;5.53;;;4.90;99.90;;;;;;4953792;28;20439;-72
2022/03/18 01:07:28;;;;;;;7.80;5.13;;;4.90;99.90;;;;;;4937163;29;20237;-72
2022/03/18 01:09:56;;;;;;;11.30;5.40;;;4.90;99.90;;;;;;4952598;29;20062;-72
2022/03/18 01:12:24;;;;;;;9.25;4.80;;;4.80;99.90;;;;;;4952539;29;20069;-72
2022/03/18 01:14:51;;;;;;;11.25;6.53;;;4.80;99.90;;;;;;4953987;28;20443;-72
2022/03/18 01:17:18;;;;;;;9.05;4.72;;;4.80;99.90;;;;;;4953772;28;20055;-72
2022/03/18 01:19:48;;;;;;;12.88;6.00;;;4.90;99.90;;;;;;4984199;28;20051;-72
2022/03/18 01:22:15;;;;;;;11.82;5.43;;;4.90;99.90;;;;;;4968459;28;20054;-72
2022/03/18 01:24:42;;;;;;;11.05;5.45;;;4.90;99.90;;;;;;4970753;28;20051;-72
2022/03/18 01:27:09;;;;;;;8.68;5.38;;;4.90;99.90;;;;;;4953707;29;20048;-72
2022/03/18 01:29:35;;;;;;;9.82;5.03;;;4.80;99.90;;;;;;4953797;29;20055;-71
2022/03/18 01:32:03;;;;;;;10.05;5.20;;;4.90;99.90;;;;;;4952982;29;20047;-71
2022/03/18 01:34:30;;;;;;;11.40;6.32;;;4.80;99.90;;;;;;4952869;29;20105;-71
2022/03/18 01:36:57;;;;;;;7.57;4.97;;;4.70;99.90;;;;;;4936311;29;20065;-72
2022/03/18 01:39:25;;;;;;;9.50;5.05;;;4.70;99.90;;;;;;4936719;29;20051;-71
2022/03/18 01:41:52;;;;;;;10.52;5.85;;;4.70;99.90;;;;;;4952703;29;20480;-71
2022/03/18 01:44:19;;;;;;;9.52;6.18;;;4.70;99.90;;;;;;4952520;29;20499;-71
2022/03/18 01:46:48;;;;;;;15.45;6.15;;;4.60;99.90;;;;;;4953602;28;20051;-71
2022/03/18 01:49:15;;;;;;;9.13;5.18;;;4.60;99.90;;;;;;4952631;29;20936;-73
2022/03/18 01:51:42;;;;;;;8.00;5.75;;;4.60;99.90;;;;;;4953335;28;20110;-73
2022/03/18 01:56:56;;;;;;;8.25;4.80;;;4.60;99.90;;;;;;4953148;29;20051;-71
2022/03/18 01:59:23;;;;;;;8.52;5.50;;;4.60;99.90;;;;;;4953879;29;20047;-71
2022/03/18 02:01:50;;;;;;;11.27;5.40;;;4.60;99.90;;;;;;4952650;29;20471;-72
2022/03/18 02:04:18;;;;;;;10.98;5.60;;;4.60;99.90;;;;;;4952594;29;20059;-71
2022/03/18 02:06:46;;;;;;;10.27;5.82;;;4.50;99.90;;;;;;4953641;28;20051;-71
2022/03/18 02:09:13;;;;;;;9.15;4.82;;;4.50;99.90;;;;;;4952389;29;20055;-72
2022/03/18 02:11:40;;;;;;;11.13;5.80;;;4.50;99.90;;;;;;4938080;29;20052;-71
2022/03/18 02:14:08;;;;;;;9.93;5.05;;;4.40;99.90;;;;;;4955793;29;20102;-71
2022/03/18 02:16:39;;;;;;;11.35;6.50;;;4.40;99.90;;;;;;4957123;28;20061;-72
2022/03/18 02:19:09;;;;;;;9.35;5.32;;;4.40;99.90;;;;;;4956193;29;20063;-71
2022/03/18 02:21:37;;;;;;;;;;;4.30;99.90;;;;;;4956362;29;20118;-71
2022/03/18 02:24:05;;;;;;;7.97;5.05;;;4.30;99.90;;;;;;4969578;28;19933;-71
2022/03/18 02:26:32;;;;;;;10.48;5.57;;;4.30;99.90;;;;;;4965683;28;20074;-71
2022/03/18 02:29:01;;;;;;;9.70;5.80;;;4.30;99.90;;;;;;4957035;28;20058;-72
2022/03/18 02:31:31;;;;;;;9.25;4.90;;;4.30;99.90;;;;;;4955900;29;20055;-72
2022/03/18 02:33:58;;;;;;;9.38;5.28;;;4.20;99.90;;;;;;4955342;29;20066;-72
2022/03/18 02:36:25;;;;;;;15.95;6.63;;;4.20;99.90;;;;;;4956904;28;20051;-72
2022/03/18 02:38:52;;;;;;;10.65;5.88;;;4.20;99.90;;;;;;4955572;29;20055;-72
2022/03/18 02:41:19;;;;;;;10.82;5.20;;;4.10;99.90;;;;;;4955608;29;20091;-72
2022/03/18 02:43:47;;;;;;;8.00;5.63;;;4.10;99.90;;;;;;4955874;29;20083;-72
2022/03/18 02:46:15;;;;;;;9.73;5.25;;;4.10;99.90;;;;;;4939748;29;20051;-71
2022/03/18 02:48:42;;;;;;;8.98;4.93;;;4.10;99.90;;;;;;4956954;28;20051;-72
2022/03/18 02:51:09;;;;;;;7.82;5.20;;;4.00;99.90;;;;;;4956396;29;20054;-72
2022/03/18 02:53:36;;;;;;;10.55;5.63;;;4.00;99.90;;;;;;4965865;28;20062;-72
2022/03/18 02:56:04;;;;;;;7.90;4.90;;;4.00;99.90;;;;;;4968799;28;20055;-72
2022/03/18 02:58:37;;;;;;;10.68;5.38;;;4.10;99.90;;;;;;4955133;29;20127;-72
2022/03/18 03:01:04;;;;;;;8.98;5.55;;;4.00;99.90;;;;;;4940156;29;20487;-72
2022/03/18 03:03:31;;;;;;;7.80;4.80;;;4.10;99.90;;;;;;4939316;29;20055;-72
2022/03/18 03:08:46;;;;;;;8.02;5.07;;;4.00;99.90;;;;;;4956284;29;20058;-72
2022/03/18 03:11:13;;;;;;;7.38;4.45;;;3.90;99.90;;;;;;4954760;29;20047;-71
2022/03/18 03:13:40;;;;;;;10.27;6.38;;;3.90;99.90;;;;;;4956362;28;20066;-72
2022/03/18 03:16:08;;;;;;;7.55;4.55;;;3.90;99.90;;;;;;4954876;29;20047;-72
2022/03/18 03:18:35;;;;;;;8.15;5.38;;;3.90;99.90;;;;;;4954736;29;20055;-72
2022/03/18 03:21:03;;;;;;;6.45;4.80;;;3.90;99.90;;;;;;4954504;29;20588;-72
2022/03/18 03:23:30;;;;;;;7.85;4.70;;;3.80;99.90;;;;;;4962180;28;20058;-72
2022/03/18 03:25:57;;;;;;;9.68;5.32;;;3.80;99.90;;;;;;4956445;28;20059;-72
2022/03/18 03:28:24;;;;;;;9.63;5.00;;;3.80;99.90;;;;;;4955326;29;20554;-72
2022/03/18 03:30:51;;;;;;;11.43;5.22;;;3.80;99.90;;;;;;4954346;29;20479;-72
2022/03/18 03:33:18;;;;;;;9.70;4.28;;;3.80;99.90;;;;;;4955516;28;20396;-72
2022/03/18 03:35:46;;;;;;;7.60;4.55;;;3.80;99.90;;;;;;4955539;28;20435;-72
2022/03/18 03:38:14;;;;;;;8.82;4.82;;;3.80;99.90;;;;;;4938672;29;20047;-72
2022/03/18 03:40:42;;;;;;;9.82;5.38;;;3.70;99.90;;;;;;4953961;29;20055;-72
2022/03/18 03:43:09;;;;;;;8.27;4.95;;;3.70;99.90;;;;;;4938729;29;20384;-72
2022/03/18 03:45:37;;;;;;;7.85;5.00;;;3.70;99.90;;;;;;4955536;28;20059;-72
2022/03/18 03:48:04;;;;;;;11.30;5.70;;;3.70;99.90;;;;;;4954514;28;20055;-72
2022/03/18 03:50:32;;;;;;;9.32;4.72;;;3.70;99.90;;;;;;4954095;29;20058;-72
2022/03/18 03:53:00;;;;;;;8.25;4.25;;;3.70;99.90;;;;;;4954247;29;20059;-72
2022/03/18 03:55:27;;;;;;;8.70;5.15;;;3.70;99.90;;;;;;4938482;29;20415;-72
2022/03/18 03:57:54;;;;;;;6.00;3.85;;;3.70;99.90;;;;;;4956030;29;20051;-72
2022/03/18 04:00:23;;;;;;;11.95;5.07;;;3.60;99.90;;;;;;4955542;28;20055;-72
2022/03/18 04:02:51;;;;;;;8.23;5.15;;;3.60;99.90;;;;;;4938198;29;20110;-73
2022/03/18 04:05:19;;;;;;;9.88;5.43;;;3.60;99.90;;;;;;4953638;29;20507;-72
2022/03/18 04:07:46;;;;;;;9.93;5.22;;;3.60;99.90;;;;;;4953905;29;20058;-72
2022/03/18 04:10:14;;;;;;;6.82;4.72;;;3.60;99.90;;;;;;4953836;29;20403;-72
2022/03/18 04:12:43;;;;;;;9.43;5.43;;;3.50;99.90;;;;;;4954754;28;20055;-72
2022/03/18 04:15:10;;;;;;;5.28;3.80;;;3.50;99.90;;;;;;4954154;29;20051;-72
2022/03/18 04:17:44;;;;;;;10.55;5.20;;;3.50;99.90;;;;;;4953553;29;20062;-72
2022/03/18 04:20:13;;;;;;;7.78;4.85;;;3.60;99.90;;;;;;4953535;29;20055;-73
2022/03/18 04:22:40;;;;;;;9.05;4.65;;;3.50;99.90;;;;;;4955032;28;20051;-72
2022/03/18 04:25:08;;;;;;;8.15;5.07;;;3.50;99.90;;;;;;4972870;28;20050;-72
2022/03/18 04:27:35;;;;;;;5.82;4.05;;;3.50;99.90;;;;;;4954082;28;20407;-73
2022/03/18 04:30:03;;;;;;;10.98;4.40;;;3.50;99.90;;;;;;4937866;29;20054;-72
2022/03/18 04:32:30;;;;;;;7.85;4.85;;;3.50;99.90;;;;;;4953626;29;20047;-72
2022/03/18 04:34:57;;;;;;;9.15;5.68;;;3.40;99.90;;;;;;4952725;28;20130;-73
2022/03/18 04:37:24;;;;;;;6.88;4.43;;;3.40;99.90;;;;;;4954264;28;20054;-72
2022/03/18 04:39:52;;;;;;;8.02;4.35;;;3.40;99.90;;;;;;4954601;28;20051;-72
2022/03/18 04:42:19;;;;;;;6.65;4.07;;;3.40;99.90;;;;;;4953512;29;20106;-72
2022/03/18 04:44:45;;;;;;;12.52;5.18;;;3.40;99.90;;;;;;4953425;29;20051;-72
2022/03/18 04:47:13;;;;;;;11.80;4.82;;;3.40;99.90;;;;;;4954694;28;20058;-73
2022/03/18 04:49:40;;;;;;;7.43;4.35;;;3.40;99.90;;;;;;4953431;29;20047;-72
2022/03/18 04:52:07;;;;;;;7.43;4.47;;;3.40;99.90;;;;;;4952552;29;20047;-72
2022/03/18 04:54:34;;;;;;;10.18;4.70;;;3.40;99.90;;;;;;4953257;29;20048;-72
2022/03/18 04:57:20;;;;;;;6.70;4.40;;;3.40;99.90;;;;;;4968273;28;20054;-72
2022/03/18 04:59:49;;;;;;;10.80;5.10;;;3.40;99.90;;;;;;4939002;29;20509;-73
2022/03/18 05:02:17;;;;;;;8.18;4.22;;;3.30;99.90;;;;;;4952724;29;20047;-72
2022/03/18 05:04:44;;;;;;;6.70;4.72;;;3.20;99.90;;;;;;4952562;29;20102;-72
2022/03/18 05:07:11;;;;;;;8.65;4.85;;;3.20;99.90;;;;;;4952514;29;20047;-72
2022/03/18 05:09:40;;;;;;;7.65;4.38;;;3.20;99.90;;;;;;4953942;28;20047;-71
2022/03/18 05:12:08;;;;;;;5.28;3.65;;;3.20;99.90;;;;;;4936702;29;20047;-72
2022/03/18 05:14:36;;;;;;;5.88;3.78;;;3.10;99.90;;;;;;4952646;29;20079;-72
2022/03/18 05:17:04;;;;;;;8.60;3.85;;;3.10;99.90;;;;;;4952494;29;20489;-72
2022/03/18 05:19:31;;;;;;;10.73;4.88;;;3.10;99.90;;;;;;4952634;29;20047;-72
2022/03/18 05:21:58;;;;;;;12.73;4.50;;;3.10;99.90;;;;;;4952550;29;20063;-72
2022/03/18 05:24:27;;;;;;;7.43;4.00;;;3.10;99.90;;;;;;4968999;28;20467;-73
2022/03/18 05:26:57;;;;;;;7.40;3.90;;;3.10;99.90;;;;;;4972758;28;20093;-72
2022/03/18 05:29:27;;;;;;;7.13;5.00;;;3.10;99.90;;;;;;4972677;28;20583;-72
2022/03/18 05:31:54;;;;;;;5.63;4.05;;;3.10;99.90;;;;;;4957475;28;20075;-72
2022/03/18 05:34:22;;;;;;;7.45;4.60;;;3.00;99.90;;;;;;4972145;28;20129;-72
2022/03/18 05:36:49;;;;;;;8.13;4.00;;;3.00;99.90;;;;;;4973101;28;20088;-72
2022/03/18 05:39:16;;;;;;;7.18;4.40;;;3.00;99.90;;;;;;4968404;28;20055;-72
2022/03/18 05:41:43;;;;;;;8.73;4.78;;;3.00;99.90;;;;;;4953418;28;20050;-72
2022/03/18 05:44:11;;;;;;;6.88;4.35;;;3.00;99.90;;;;;;4952745;29;20055;-72
2022/03/18 05:46:43;;;;;;;6.07;3.78;;;3.00;99.90;;;;;;4954674;28;20522;-71
2022/03/18 05:49:10;;;;;;;7.70;4.72;;;3.00;99.90;;;;;;4940422;29;20483;-72
2022/03/18 05:51:37;;;;;;;10.15;4.70;;;3.00;99.90;;;;;;4956044;28;20623;-72
2022/03/18 05:54:04;;;;;;;7.88;3.80;;;3.00;99.90;;;;;;4962134;28;20051;-72
2022/03/18 05:59:16;;;;;;;10.05;4.03;;;3.00;99.90;;;;;;4956532;29;20483;-72
2022/03/18 06:01:43;;;;;;;6.63;4.30;;;3.00;99.90;;;;;;4956293;29;20055;-72
2022/03/18 06:04:11;;;;;;;10.90;5.03;;;2.90;99.90;;;;;;4940098;29;20085;-72
2022/03/18 06:06:38;;;;;;;7.78;4.47;;;2.90;99.90;;;;;;4955891;29;20440;-72
2022/03/18 06:11:51;;;;;;;10.50;5.82;;;3.00;99.90;;;;;;4956436;29;20138;-72
2022/03/18 06:14:19;;;;;;;7.28;4.40;;;3.00;99.90;;;;;;4955985;29;20051;-72
2022/03/18 06:16:47;;;;;;;9.40;4.68;;;3.00;99.90;;;;;;4955892;29;20060;-72
2022/03/18 06:19:19;;;;;;;9.30;5.20;;;3.00;99.90;;;;;;4940133;29;20074;-73
2022/03/18 06:21:46;;;;;;;8.07;4.25;;;3.00;99.90;;;;;;4955303;29;20110;-72
2022/03/18 06:24:13;;;;;;;8.35;4.78;;;3.00;99.90;;;;;;4970356;28;20050;-72
2022/03/18 06:26:40;;;;;;;9.75;5.38;;;3.00;99.90;;;;;;4963248;28;20059;-72
2022/03/18 06:29:07;;;;;;;8.70;5.63;;;3.00;99.90;;;;;;4955502;29;20484;-72
2022/03/18 06:31:35;;;;;;;9.43;5.15;;;3.00;99.90;;;;;;4957139;28;20055;-72
2022/03/18 06:34:03;;;;;;;11.20;5.25;;;3.00;99.90;;;;;;4955469;29;20043;-72
2022/03/18 06:36:31;;;;;;;11.35;5.22;;;3.00;99.90;;;;;;4955167;29;20415;-72
2022/03/18 06:38:58;;;;;;;7.93;5.35;;;3.00;99.90;;;;;;4955765;29;20499;-72
2022/03/18 06:41:26;;;;;;;7.75;4.60;;;3.10;99.90;;;;;;4939651;29;20066;-71
2022/03/18 06:43:54;;;;;;;9.75;4.85;;;3.10;99.90;;;;;;4955629;29;20479;-71
2022/03/18 06:46:20;;;;;;;9.05;4.78;;;3.20;99.90;;;;;;4955436;29;20487;-71
2022/03/18 06:48:48;;;;;;;11.38;6.88;;;3.20;99.90;;;;;;4956994;28;20051;-71
2022/03/18 06:51:16;;;;;;;9.57;6.25;;;3.30;99.90;;;;;;4954902;29;20050;-71
2022/03/18 06:53:43;;;;;;;10.45;5.82;;;3.30;99.90;;;;;;4939079;29;20055;-71
2022/03/18 06:56:12;;;;;;;11.13;6.03;;;3.30;99.90;;;;;;4922979;28;20515;-71
2022/03/18 06:58:39;;;;;;;10.10;5.38;;;3.40;99.90;;;;;;4954739;29;20517;-71
2022/03/18 07:01:07;;;;;;;10.00;5.85;;;3.40;99.90;;;;;;4956649;28;20055;-71
2022/03/18 07:03:34;;;;;;;15.07;6.30;;;3.40;99.90;;;;;;4955111;29;20051;-71
2022/03/18 07:06:01;;;;;;;15.77;7.85;;;3.50;99.90;;;;;;4954296;29;20089;-71
2022/03/18 07:08:28;;;;;;;10.75;6.53;;;3.60;99.90;;;;;;4956362;28;20372;-71
2022/03/18 07:10:57;;;;;;;11.10;6.30;;;3.70;99.90;;;;;;4955725;29;20398;-71
2022/03/18 07:13:24;;;;;;;13.35;6.50;;;3.70;99.90;;;;;;4955946;28;20067;-70
2022/03/18 07:15:51;;;;;;;12.60;6.55;;;3.80;99.90;;;;;;4938353;29;20066;-71
2022/03/18 07:18:19;;;;;;;10.52;6.05;;;3.90;99.90;;;;;;4954764;29;20055;-70
2022/03/18 07:20:46;;;;;;;12.30;7.00;;;3.90;99.90;;;;;;4955914;28;20058;-71
2022/03/18 07:23:16;;;;;;;9.93;6.15;;;4.00;99.90;;;;;;4960235;28;20062;-71
2022/03/18 07:25:44;;;;;;;9.50;7.32;;;4.00;99.90;;;;;;4970351;28;20059;-71
2022/03/18 07:28:16;;;;;;;13.57;6.72;;;4.10;99.90;;;;;;4939169;29;20134;-71
2022/03/18 07:30:43;;;;;;;13.05;7.20;;;4.20;99.90;;;;;;4955639;28;20384;-72
2022/03/18 07:33:12;;;;;;;13.93;7.47;;;4.30;99.90;;;;;;4956207;28;20059;-72
2022/03/18 07:35:39;;;;;;;10.05;6.38;;;4.40;99.90;;;;;;4954863;29;20055;-71
2022/03/18 07:38:09;;;;;;;13.07;7.47;;;4.50;99.90;;;;;;4954353;29;20062;-72
2022/03/18 07:40:37;;;;;;;13.98;7.60;;;4.60;99.90;;;;;;4954725;29;20478;-71
2022/03/18 07:43:05;;;;;;;14.30;7.82;;;4.60;99.90;;;;;;4970024;28;20050;-71
2022/03/18 07:45:35;;;;;;;16.70;7.70;;;4.80;99.90;;;;;;4938862;29;20055;-71
2022/03/18 07:48:04;;;;;;;17.23;7.72;;;4.90;99.90;;;;;;4938764;29;20158;-71
2022/03/18 07:50:32;;;;;;;17.05;8.07;;;5.00;99.90;;;;;;4954111;29;20746;-71
2022/03/18 07:53:00;;;;;;;15.15;7.78;;;5.10;99.90;;;;;;4973471;28;20050;-71
2022/03/18 07:55:29;;;;;;;17.02;9.63;;;5.20;99.90;;;;;;4970960;28;20047;-72
2022/03/18 07:57:56;;;;;;;20.58;9.13;;;5.30;99.90;;;;;;4938130;29;20491;-71
2022/03/18 08:00:23;;;;;;;14.23;7.93;;;5.40;99.90;;;;;;4954210;29;20049;-72
2022/03/18 08:02:53;;;;;;;17.35;8.73;;;5.50;99.90;;;;;;4937970;29;20159;-72
2022/03/18 08:05:20;;;;;;;15.35;8.82;;;5.60;99.90;;;;;;4954521;29;20051;-72
2022/03/18 08:07:53;;;;;;;14.43;7.82;;;5.70;99.90;;;;;;4955161;28;20055;-72
2022/03/18 08:10:20;;;;;;;14.27;9.10;;;5.80;99.90;;;;;;4937878;29;20483;-72
2022/03/18 08:12:47;;;;;;;19.33;10.15;;;6.00;99.90;;;;;;4955258;28;20058;-72
2022/03/18 08:15:15;;;;;;;37.08;11.65;;;6.10;99.90;;;;;;4954292;29;20051;-72
2022/03/18 08:17:42;;;;;;;21.08;10.05;;;6.30;99.90;;;;;;4955490;28;20063;-72
2022/03/18 08:20:13;;;;;;;21.25;11.07;;;6.50;99.90;;;;;;4938133;29;20047;-72
2022/03/18 08:22:40;;;;;;;20.08;10.45;;;6.60;99.90;;;;;;4954643;28;20059;-72
2022/03/18 08:25:08;;;;;;;29.98;12.07;;;6.80;99.90;;;;;;4956738;28;20051;-73
2022/03/18 08:27:35;;;;;;;18.38;10.18;;;7.10;99.90;;;;;;4955012;28;20047;-73
2022/03/18 08:30:04;;;;;;;31.30;11.68;;;7.40;99.90;;;;;;4922413;29;20055;-72
2022/03/18 08:32:32;;;;;;;18.83;9.77;;;7.60;99.90;;;;;;4953800;29;20055;-73
2022/03/18 08:34:59;;;;;;;20.33;10.60;;;7.70;99.90;;;;;;4953602;29;20047;-73
2022/03/18 08:40:12;;;;;;;16.70;8.60;;;8.00;99.90;;;;;;4953953;29;20058;-73
2022/03/18 08:42:39;;;;;;;25.88;10.45;;;8.10;99.90;;;;;;4953238;29;20054;-73
2022/03/18 08:45:07;;;;;;;25.17;10.20;;;8.20;99.90;;;;;;4953572;29;20063;-72
2022/03/18 08:47:34;;;;;;;22.58;10.75;;;8.30;99.90;;;;;;4953796;28;20051;-72
2022/03/18 08:50:04;;;;;;;21.55;9.75;;;8.40;99.90;;;;;;4937400;29;20058;-72
2022/03/18 08:52:31;;;;;;;24.27;9.52;;;8.50;99.90;;;;;;4953160;29;20058;-72
2022/03/18 08:55:07;;;;;;;23.10;9.80;;;8.60;99.90;;;;;;4933838;29;20056;-72
2022/03/18 08:57:37;;;;;;;20.38;9.98;;;8.70;99.90;;;;;;4952566;29;20126;-73
2022/03/18 09:00:07;;;;;;;21.10;10.10;;;8.80;99.90;;;;;;4938097;29;20114;-73
2022/03/18 09:02:37;;;;;;;22.25;9.60;;;8.80;99.90;;;;;;4922052;29;20063;-73
2022/03/18 09:05:05;;;;;;;31.13;10.68;;;9.00;99.90;;;;;;4952786;29;20082;-73
2022/03/18 09:07:32;;;;;;;23.20;9.45;;;9.00;99.90;;;;;;4954703;29;20054;-73
2022/03/18 09:10:02;;;;;;;24.98;10.50;;;9.00;99.90;;;;;;4937224;29;20051;-73
2022/03/18 09:12:29;;;;;;;30.63;12.23;;;9.10;99.90;;;;;;4937048;29;20059;-73
2022/03/18 09:14:58;;;;;;;17.02;8.95;;;9.10;99.90;;;;;;4953553;28;20051;-72
2022/03/18 09:17:25;;;;;;;19.70;9.82;;;9.10;99.90;;;;;;4952641;29;20055;-72
2022/03/18 09:19:52;;;;;;;20.27;10.70;;;9.20;99.90;;;;;;4952789;28;20055;-72
2022/03/18 09:22:19;;;;;;;22.92;11.18;;;9.20;99.90;;;;;;4953578;28;20106;-72
2022/03/18 09:24:46;;;;;;;22.40;11.35;;;9.30;99.90;;;;;;4954363;28;20066;-73
2022/03/18 09:27:14;;;;;;;23.27;10.30;;;9.30;99.90;;;;;;4940208;29;20058;-73
2022/03/18 09:29:41;;;;;;;20.25;8.60;;;9.40;99.90;;;;;;4953651;28;20136;-73
2022/03/18 09:32:08;;;;;;;21.85;10.57;;;9.60;99.90;;;;;;4952893;29;20410;-73
2022/03/18 09:34:36;;;;;;;16.98;8.23;;;9.60;99.90;;;;;;4937081;29;20059;-73
2022/03/18 09:37:03;;;;;;;17.05;9.20;;;9.70;99.90;;;;;;4952471;29;20051;-73
2022/03/18 09:39:30;;;;;;;23.65;11.85;;;9.70;99.90;;;;;;4953690;28;20110;-73
2022/03/18 09:42:02;;;;;;;17.58;8.60;;;9.80;99.90;;;;;;4952404;29;20047;-73
2022/03/18 09:44:39;;;;;;;17.55;8.93;;;9.90;99.90;;;;;;4936822;29;20050;-73
2022/03/18 09:47:07;;;;;;;20.40;9.40;;;10.00;99.90;;;;;;4937262;29;20090;-73
2022/03/18 09:49:34;;;;;;;18.02;8.73;;;10.00;99.90;;;;;;4921219;29;20474;-73
2022/03/18 09:52:04;;;;;;;21.35;8.65;;;10.10;99.90;;;;;;4936407;29;20503;-72
2022/03/18 09:54:32;;;;;;;17.02;9.15;;;10.10;99.90;;;;;;4968609;28;20137;-73
2022/03/18 09:57:00;;;;;;;19.67;9.18;;;10.20;99.90;;;;;;4957387;28;20062;-73
2022/03/18 09:59:27;;;;;;;16.77;9.18;;;10.20;99.90;;;;;;4952484;29;20546;-73
2022/03/18 10:02:26;;;;;;;23.02;8.90;;;10.30;99.90;;;;;;4951984;29;20057;-73
2022/03/18 10:04:58;;;;;;;19.85;7.45;;;10.40;99.90;;;;;;4952573;29;20055;-73
2022/03/18 10:07:25;;;;;;;14.65;7.15;;;10.50;99.90;;;;;;4951964;29;20515;-72
2022/03/18 10:10:04;;;;;;;15.43;6.32;;;10.50;99.90;;;;;;4951886;29;20054;-72
2022/03/18 10:12:33;;;;;;;19.13;7.97;;;10.60;99.90;;;;;;4936524;29;20057;-73
2022/03/18 10:15:09;;;;;;;18.48;8.10;;;10.60;99.90;;;;;;4952184;29;20059;-73
2022/03/18 10:17:40;;;;;;;23.70;8.18;;;10.60;99.90;;;;;;4953666;28;20059;-73
2022/03/18 10:20:08;;;;;;;16.90;8.25;;;10.60;99.90;;;;;;4952373;29;20051;-73
2022/03/18 10:22:36;;;;;;;18.83;7.78;;;10.70;99.90;;;;;;4951898;28;20522;-73
2022/03/18 10:25:04;;;;;;;15.75;6.57;;;10.80;99.90;;;;;;4971525;28;20074;-74
2022/03/18 10:27:32;;;;;;;16.00;8.05;;;10.90;99.90;;;;;;4954430;28;20059;-73
2022/03/18 10:29:59;;;;;;;16.10;7.80;;;10.90;99.90;;;;;;4952022;29;20065;-73
2022/03/18 10:32:27;;;;;;;16.13;7.55;;;11.00;99.90;;;;;;4953141;28;20066;-73
2022/03/18 10:37:50;;;;;;;19.50;7.35;;;11.10;99.90;;;;;;4955399;29;20051;-73
2022/03/18 10:40:18;;;;;;;16.25;9.45;;;11.20;99.90;;;;;;4955546;29;20063;-73
2022/03/18 10:43:04;;;;;;;14.45;7.18;;;11.30;99.90;;;;;;4939333;29;20062;-73
2022/03/18 10:45:31;;;;;;;16.13;7.22;;;11.30;99.90;;;;;;4955799;29;20530;-73
2022/03/18 10:48:14;;;;;;;17.45;7.85;;;11.30;99.90;;;;;;4940122;29;20047;-73
2022/03/18 10:50:45;;;;;;;19.02;7.97;;;11.40;99.90;;;;;;4941077;29;20055;-73
2022/03/18 10:53:12;;;;;;;26.00;9.25;;;11.50;99.90;;;;;;4924553;29;20059;-73
2022/03/18 10:55:40;;;;;;;15.65;8.02;;;11.50;99.90;;;;;;4939868;29;20471;-73
2022/03/18 10:58:19;;;;;;;20.92;7.45;;;11.60;99.90;;;;;;4956626;28;20057;-73
2022/03/18 11:00:51;;;;;;;17.13;7.80;;;11.70;99.90;;;;;;4956634;29;20051;-73
2022/03/18 11:03:18;;;;;;;12.68;8.18;;;11.80;99.90;;;;;;4941413;29;20602;-73
2022/03/18 11:05:47;;;;;;;16.35;7.35;;;11.80;99.90;;;;;;4925717;29;20055;-73
2022/03/18 11:08:17;;;;;;;20.88;8.82;;;11.90;99.90;;;;;;4942387;29;20083;-73
2022/03/18 11:13:48;;;;;;;14.85;6.32;;;12.00;99.90;;;;;;4944591;29;20574;-73
2022/03/18 11:16:23;;;;;;;18.55;6.95;;;12.10;99.90;;;;;;4957912;28;20078;-73
2022/03/18 11:18:56;;;;;;;13.88;6.68;;;12.20;99.90;;;;;;4940604;29;20051;-73
2022/03/18 11:21:29;;;;;;;12.13;6.28;;;12.20;99.90;;;;;;4954648;29;20051;-73
2022/03/18 11:23:55;;;;;;;12.20;6.57;;;12.30;99.90;;;;;;4956119;28;20051;-73
2022/03/18 11:26:29;;;;;;;17.55;8.07;;;12.30;99.90;;;;;;4954779;29;20053;-73
2022/03/18 11:29:09;;;;;;;14.70;6.57;;;12.50;99.90;;;;;;4939312;29;20055;-73
2022/03/18 11:31:42;;;;;;;16.85;6.75;;;12.50;99.90;;;;;;4939708;29;20058;-72
2022/03/18 11:34:14;;;;;;;15.45;6.35;;;12.50;98.70;;;;;;4938864;29;20086;-74
2022/03/18 11:36:53;;;;;;;16.20;6.22;;;12.50;99.00;;;;;;4953807;29;20058;-73
2022/03/18 11:39:30;;;;;;;13.13;5.57;;;12.60;97.90;;;;;;4954626;29;20058;-73
2022/03/18 11:42:26;;;;;;;10.98;5.30;;;12.60;98.40;;;;;;4953606;29;20146;-73
2022/03/18 11:45:06;;;;;;;10.50;4.75;;;12.70;96.10;;;;;;4954284;29;20857;-73
2022/03/18 11:47:53;;;;;;;16.25;5.63;;;12.80;95.80;;;;;;4968472;28;20542;-73
2022/03/18 11:50:45;;;;;;;11.90;5.45;;;12.90;96.40;;;;;;4968833;28;20138;-73
2022/03/18 11:53:33;;;;;;;15.60;6.43;;;12.90;96.00;;;;;;4959260;28;20159;-73
2022/03/18 11:56:09;;;;;;;14.43;7.53;;;13.10;96.80;;;;;;4938764;29;20074;-73
2022/03/18 11:58:38;;;;;;;12.68;7.25;;;13.20;95.80;;;;;;4953460;29;20081;-74
2022/03/18 12:01:06;;;;;;;14.73;6.82;;;13.10;94.00;;;;;;4955354;28;20051;-74
2022/03/18 12:03:37;;;;;;;18.50;6.43;;;13.10;94.90;;;;;;4954093;29;20052;-74
2022/03/18 12:06:04;;;;;;;13.77;6.13;;;13.10;95.30;;;;;;4955072;28;20183;-73
2022/03/18 12:08:54;;;;;;;15.98;6.82;;;13.10;95.70;;;;;;4955024;28;20051;-73
2022/03/18 12:11:32;;;;;;;10.38;4.97;;;13.10;92.60;;;;;;4953681;29;20066;-73
2022/03/18 12:14:06;;;;;;;9.52;4.38;;;13.00;92.50;;;;;;4954663;28;20467;-74
2022/03/18 12:16:33;;;;;;;13.07;5.18;;;12.90;93.10;;;;;;4937953;29;20130;-74
2022/03/18 12:19:22;;;;;;;15.93;4.85;;;13.00;92.70;;;;;;4953625;29;20051;-73
2022/03/18 12:21:50;;;;;;;10.40;3.95;;;13.00;92.40;;;;;;4938197;29;20055;-73
2022/03/18 12:24:20;;;;;;;10.80;5.45;;;13.20;92.20;;;;;;4967422;28;20133;-73
2022/03/18 12:26:51;;;;;;;13.32;5.03;;;13.30;92.30;;;;;;4944164;29;20444;-73
2022/03/18 12:29:27;;;;;;;13.43;4.07;;;13.40;92.70;;;;;;4937422;29;20047;-73
2022/03/18 12:32:10;;;;;;;12.82;4.03;;;13.40;90.60;;;;;;4938409;29;20066;-73
2022/03/18 12:34:52;;;;;;;8.13;3.58;;;13.30;90.70;;;;;;4953309;29;20582;-73
2022/03/18 12:37:22;;;;;;;8.43;2.83;;;13.40;89.80;;;;;;4953327;29;20051;-73
2022/03/18 12:40:02;;;;;;;;;;;13.30;89.60;;;;;;4954120;29;20055;-73
2022/03/18 12:42:31;;;;;;;12.77;3.97;;;13.20;87.30;;;;;;4954557;28;19953;-73
2022/03/18 12:45:11;;;;;;;9.57;3.83;;;13.30;88.00;;;;;;4953760;29;20047;-73
2022/03/18 12:47:50;;;;;;;9.77;3.73;;;13.30;86.80;;;;;;4953595;29;20070;-73
2022/03/18 12:50:19;;;;;;;11.13;3.80;;;13.40;88.30;;;;;;4953061;29;20089;-73
2022/03/18 12:52:46;;;;;;;6.78;2.75;;;13.30;88.30;;;;;;4953918;28;20050;-73
2022/03/18 12:55:13;;;;;;;5.97;3.47;;;13.40;87.70;;;;;;4972580;28;20058;-73
2022/03/18 12:57:41;;;;;;;7.88;2.95;;;13.40;86.60;;;;;;4953269;29;20282;-73
2022/03/18 13:00:11;;;;;;;5.68;3.05;;;13.40;84.90;;;;;;4953022;29;20505;-73
2022/03/18 13:02:58;;;;;;;;;;;13.30;84.10;;;;;;4953604;29;20055;-74
2022/03/18 13:05:28;;;;;;;10.20;2.70;;;13.40;86.30;;;;;;4952661;29;19955;-73
2022/03/18 13:07:58;;;;;;;6.07;2.88;;;13.40;85.60;;;;;;4954021;29;20126;-73
2022/03/18 13:10:25;;;;;;;11.80;3.55;;;13.40;87.00;;;;;;4937201;29;20471;-73
2022/03/18 13:12:53;;;;;;;8.18;3.33;;;13.40;86.30;;;;;;4952960;29;20047;-73
2022/03/18 13:15:20;;;;;;;8.43;3.95;;;13.40;85.10;;;;;;4936726;29;20043;-73
2022/03/18 13:17:48;;;;;;;10.02;3.78;;;13.30;85.60;;;;;;4953597;28;20432;-73
2022/03/18 13:20:23;;;;;;;15.32;3.55;;;13.30;86.40;;;;;;4954312;28;20054;-73